Dades meteomassalio
Diari Summary for Abril 26, 2017 Units:  English    Metric   Both
« Previous Day
Next Day »
Diari Semanal Mensual Anual Personalitzat
  Maxima: Minima: Mijana:
Temperatura: TemperatureC °F 9.4 °F 12.2 °F
Rosada: DewpointC °F 0.3 °F 7 °F
Humitat: Humidity % 53 % 71 %
Velocitat del vent: WindSpeedKMH mph 0.0 mph 18.3 mph
Racha vent: WindSpeedGustKMH mph - -
Vent:- - WNW
Pressio: PressurehPa in 1006.7 in -
Pluja: 0.3 in    
Historical Graphs
 
 
Tabular Data for Abril 26, 2017
Time Temperature Dew Point Pressure Wind Wind Speed Wind Gust Humidity Rainfall Rate (Hourly) solar Conditions
TemperatureC °F DewpointC °F PressurehPa in Calm     Humidity % HourlyPrecipMM in SolarRadiationWatts/m^2 W/m2 Conditions
00:00 15.6 °F 14.1 °F 1006.7 in Calm     91 % 0.0 in 0.0 W/m2 RA
00:05 15.3 °F 13.7 °F 1007.0 in WNW 24.1 mph 24.1 mph 90 % 0.0 in 0.0 W/m2 CLR
00:10 14.6 °F 12.8 °F 1007.0 in NNW 32.2 mph 32.2 mph 89 % 0.0 in 0.0 W/m2 CLR
00:15 14.0 °F 12.1 °F 1007.0 in WNW 25.9 mph 25.9 mph 88 % 0.0 in 0.0 W/m2 CLR
00:20 13.7 °F 11.9 °F 1007.0 in NW 31.5 mph 31.5 mph 89 % 0.0 in 0.0 W/m2 CLR
00:25 13.4 °F 11.7 °F 1007.3 in West 29.6 mph 29.6 mph 89 % 0.0 in 0.0 W/m2 CLR
00:30 13.3 °F 11.5 °F 1007.3 in West 31.5 mph 31.5 mph 89 % 0.0 in 0.0 W/m2 CLR
00:35 13.2 °F 11.4 °F 1007.3 in WNW 31.5 mph 31.5 mph 89 % 0.0 in 0.0 W/m2 CLR
00:40 13.1 °F 11.2 °F 1007.3 in West 30.6 mph 30.6 mph 88 % 0.0 in 0.0 W/m2 CLR
00:45 13.0 °F 10.9 °F 1007.7 in West 30.6 mph 30.6 mph 87 % 0.0 in 0.0 W/m2 CLR
00:50 12.8 °F 10.7 °F 1007.3 in WNW 31.5 mph 31.5 mph 87 % 0.0 in 0.0 W/m2 CLR
00:55 12.7 °F 10.6 °F 1007.3 in WNW 31.5 mph 31.5 mph 87 % 0.0 in 0.0 W/m2 CLR
01:00 12.6 °F 10.5 °F 1007.3 in WNW 25.9 mph 25.9 mph 87 % 0.0 in 0.0 W/m2 CLR
01:05 12.6 °F 10.3 °F 1007.3 in NW 27.8 mph 27.8 mph 86 % 0.0 in 0.0 W/m2 CLR
01:10 12.6 °F 10.3 °F 1007.3 in WNW 29.0 mph 29.0 mph 86 % 0.0 in 0.0 W/m2 CLR
01:15 12.6 °F 9.9 °F 1007.3 in West 31.5 mph 31.5 mph 84 % 0.0 in 0.0 W/m2 CLR
01:20 12.6 °F 9.9 °F 1007.3 in WNW 22.2 mph 22.2 mph 84 % 0.0 in 0.0 W/m2 CLR
01:25 12.5 °F 9.7 °F 1007.3 in West 20.9 mph 20.9 mph 83 % 0.0 in 0.0 W/m2 CLR
01:30 12.6 °F 9.7 °F 1007.3 in West 20.4 mph 20.4 mph 83 % 0.0 in 0.0 W/m2 CLR
01:35 12.5 °F 9.5 °F 1007.3 in WNW 24.1 mph 24.1 mph 82 % 0.0 in 0.0 W/m2 CLR
01:40 12.5 °F 9.5 °F 1007.3 in WNW 24.1 mph 24.1 mph 82 % 0.0 in 0.0 W/m2 CLR
01:45 12.4 °F 9.3 °F 1007.3 in WNW 17.7 mph 17.7 mph 81 % 0.0 in 0.0 W/m2 CLR
01:50 12.4 °F 9.2 °F 1007.7 in West 24.1 mph 24.1 mph 81 % 0.0 in 0.0 W/m2 CLR
01:55 12.4 °F 9.1 °F 1007.3 in West 25.9 mph 25.9 mph 80 % 0.0 in 0.0 W/m2 CLR
02:00 12.4 °F 9.1 °F 1007.3 in West 24.1 mph 24.1 mph 80 % 0.0 in 0.0 W/m2 CLR
02:05 12.5 °F 8.9 °F 1007.3 in West 25.9 mph 25.9 mph 79 % 0.0 in 0.0 W/m2 CLR
02:10 12.5 °F 8.8 °F 1007.3 in West 27.8 mph 27.8 mph 78 % 0.0 in 0.0 W/m2 CLR
02:15 12.5 °F 8.8 °F 1007.7 in West 18.5 mph 18.5 mph 78 % 0.0 in 0.0 W/m2 CLR
02:20 12.5 °F 8.6 °F 1007.3 in West 9.3 mph 9.3 mph 77 % 0.0 in 0.0 W/m2 CLR
02:25 12.5 °F 8.6 °F 1007.3 in WNW 3.7 mph 3.7 mph 77 % 0.0 in 0.0 W/m2 CLR
02:26 12.5 °F 8.6 °F 1007.3 in West 5.6 mph 5.6 mph 77 % 0.0 in 0.0 W/m2 CLR
02:31 12.4 °F 8.7 °F 1007.3 in Calm     78 % 0.0 in 0.0 W/m2 CLR
02:36 12.4 °F 8.5 °F 1007.3 in WSW 1.9 mph   77 % 0.0 in 0.0 W/m2 CLR
02:41 12.4 °F 8.5 °F 1007.3 in West 9.3 mph 9.3 mph 77 % 0.0 in 0.0 W/m2 CLR
02:46 12.5 °F 8.6 °F 1007.3 in WSW 7.4 mph 7.4 mph 77 % 0.0 in 0.0 W/m2 CLR
02:51 12.4 °F 8.5 °F 1007.3 in West 5.6 mph 5.6 mph 77 % 0.0 in 0.0 W/m2 CLR
02:56 12.4 °F 8.7 °F 1007.3 in Calm     78 % 0.0 in 0.0 W/m2 CLR
03:01 12.4 °F 8.7 °F 1007.3 in Calm     78 % 0.0 in 0.0 W/m2 CLR
03:06 12.4 °F 8.8 °F 1007.3 in Calm     79 % 0.0 in 0.0 W/m2 CLR
03:11 12.3 °F 9.0 °F 1007.3 in Calm     80 % 0.0 in 0.0 W/m2 CLR
03:16 12.3 °F 9.1 °F 1007.3 in Calm     81 % 0.0 in 0.0 W/m2 CLR
03:21 12.2 °F 9.2 °F 1007.3 in Calm     82 % 0.0 in 0.0 W/m2 CLR
03:26 12.1 °F 9.1 °F 1007.3 in Calm     82 % 0.0 in 0.0 W/m2 CLR
03:31 12.1 °F 9.1 °F 1007.3 in Calm     82 % 0.0 in 0.0 W/m2 CLR
03:36 12.1 °F 9.1 °F 1007.3 in WNW 9.3 mph 9.3 mph 82 % 0.0 in 0.0 W/m2 CLR
03:41 12.0 °F 8.8 °F 1007.3 in NW 7.4 mph 7.4 mph 81 % 0.0 in 0.0 W/m2 CLR
03:46 11.9 °F 8.7 °F 1007.3 in WNW 1.6 mph   81 % 0.0 in 0.0 W/m2 CLR
03:51 11.8 °F 8.5 °F 1007.3 in WNW 14.8 mph 14.8 mph 80 % 0.0 in 0.0 W/m2 CLR
03:56 11.8 °F 8.5 °F 1007.3 in WNW 9.3 mph 9.3 mph 80 % 0.0 in 0.0 W/m2 CLR
04:01 11.8 °F 8.4 °F 1007.3 in WNW 11.1 mph 11.1 mph 80 % 0.0 in 0.0 W/m2 CLR
04:06 11.7 °F 8.2 °F 1007.3 in NW 14.8 mph 14.8 mph 79 % 0.0 in 0.0 W/m2 CLR
04:11 11.7 °F 8.2 °F 1007.3 in WNW 17.7 mph 17.7 mph 79 % 0.0 in 0.0 W/m2 CLR
04:16 11.6 °F 8.1 °F 1007.3 in WNW 16.1 mph 16.1 mph 79 % 0.0 in 0.0 W/m2 CLR
04:21 11.6 °F 8.3 °F 1007.7 in WNW 6.4 mph 6.4 mph 80 % 0.0 in 0.0 W/m2 CLR
04:26 11.6 °F 8.3 °F 1007.3 in WNW 6.4 mph 6.4 mph 80 % 0.0 in 0.0 W/m2 CLR
04:31 11.6 °F 8.1 °F 1007.3 in NW 14.8 mph 14.8 mph 79 % 0.0 in 0.0 W/m2 CLR
04:36 11.6 °F 8.3 °F 1007.3 in WNW 13.0 mph 13.0 mph 80 % 0.0 in 0.0 W/m2 CLR
04:41 11.6 °F 8.3 °F 1007.3 in WNW 16.7 mph 16.7 mph 80 % 0.0 in 0.0 W/m2 CLR
04:46 11.6 °F 8.3 °F 1007.3 in WNW 14.8 mph 14.8 mph 80 % 0.0 in 0.0 W/m2 CLR
04:51 11.6 °F 8.4 °F 1007.3 in West 16.1 mph 16.1 mph 81 % 0.0 in 0.0 W/m2 CLR
04:56 11.5 °F 8.3 °F 1007.3 in West 16.7 mph 16.7 mph 81 % 0.0 in 0.0 W/m2 CLR
05:01 11.5 °F 8.6 °F 1007.3 in West 9.3 mph 9.3 mph 82 % 0.0 in 0.0 W/m2 CLR
05:06 11.4 °F 8.4 °F 1007.3 in West 11.1 mph 11.1 mph 82 % 0.0 in 0.0 W/m2 CLR
05:11 11.3 °F 8.4 °F 1007.3 in Calm     82 % 0.0 in 0.0 W/m2 CLR
05:16 11.3 °F 8.3 °F 1007.3 in WNW 7.4 mph 7.4 mph 82 % 0.0 in 0.0 W/m2 CLR
05:21 11.2 °F 8.4 °F 1007.3 in Calm     83 % 0.0 in 0.0 W/m2 CLR
05:26 11.2 °F 8.4 °F 1007.3 in WNW 9.7 mph 9.7 mph 83 % 0.0 in 0.0 W/m2 CLR
05:31 11.2 °F 8.3 °F 1007.3 in Calm     82 % 0.0 in 0.0 W/m2 CLR
05:36 11.2 °F 8.4 °F 1007.3 in WNW 14.8 mph 14.8 mph 83 % 0.0 in 0.0 W/m2 CLR
05:41 11.1 °F 8.3 °F 1007.3 in West 5.6 mph 5.6 mph 83 % 0.0 in 0.0 W/m2 CLR
05:46 11.1 °F 8.3 °F 1007.3 in WNW 7.4 mph 7.4 mph 83 % 0.0 in 0.0 W/m2 CLR
05:51 11.1 °F 8.3 °F 1007.3 in West 6.4 mph 6.4 mph 83 % 0.0 in 0.0 W/m2 CLR
05:56 11.1 °F 8.3 °F 1007.3 in WNW 11.1 mph 11.1 mph 83 % 0.0 in 0.0 W/m2 CLR
06:01 11.1 °F 8.3 °F 1007.3 in West 7.4 mph 7.4 mph 83 % 0.0 in 0.0 W/m2 CLR
06:06 11.1 °F 8.3 °F 1007.3 in WNW 18.5 mph 18.5 mph 83 % 0.0 in 0.0 W/m2 CLR
06:11 11.1 °F 8.3 °F 1007.3 in WNW 17.7 mph 17.7 mph 83 % 0.0 in 0.0 W/m2 CLR
06:16 11.1 °F 8.3 °F 1007.3 in West 17.7 mph 17.7 mph 83 % 0.0 in 0.0 W/m2 CLR
06:21 11.1 °F 8.3 °F 1007.3 in WSW 14.8 mph 14.8 mph 83 % 0.0 in 0.0 W/m2 CLR
06:26 11.1 °F 8.3 °F 1007.3 in West 17.7 mph 17.7 mph 83 % 0.0 in 0.0 W/m2 CLR
06:31 11.2 °F 8.4 °F 1007.3 in WNW 14.5 mph 14.5 mph 83 % 0.0 in 0.0 W/m2 CLR
06:36 11.2 °F 8.4 °F 1007.3 in West 9.7 mph 9.7 mph 83 % 0.0 in 0.0 W/m2 CLR
06:41 11.2 °F 8.2 °F 1007.3 in WNW 18.5 mph 18.5 mph 82 % 0.0 in 0.0 W/m2 CLR
06:46 11.2 °F 8.3 °F 1007.3 in West 16.7 mph 16.7 mph 82 % 0.0 in 0.0 W/m2 CLR
06:51 11.2 °F 8.3 °F 1007.3 in West 18.5 mph 18.5 mph 82 % 0.0 in 0.0 W/m2 CLR
06:56 11.2 °F 8.3 °F 1007.3 in West 18.5 mph 18.5 mph 82 % 0.0 in 0.0 W/m2 CLR
07:01 11.2 °F 8.3 °F 1007.3 in West 16.7 mph 16.7 mph 82 % 0.0 in 0.0 W/m2 OVC
07:06 11.2 °F 8.3 °F 1007.3 in WNW 18.5 mph 18.5 mph 82 % 0.0 in 0.0 W/m2 OVC
07:11 11.2 °F 8.3 °F 1007.3 in West 18.5 mph 18.5 mph 82 % 0.0 in 0.0 W/m2 OVC
07:17 11.3 °F 8.1 °F 1007.3 in West 18.5 mph 18.5 mph 81 % 0.0 in 0.0 W/m2 OVC
07:22 11.3 °F 8.1 °F 1007.7 in West 22.5 mph 22.5 mph 81 % 0.0 in 0.0 W/m2 OVC
07:27 11.3 °F 8.1 °F 1007.7 in West 20.4 mph 20.4 mph 81 % 0.0 in 5.0 W/m2 OVC
07:32 11.3 °F 8.1 °F 1007.7 in West 18.5 mph 18.5 mph 81 % 0.0 in 7.0 W/m2 BKN
07:37 11.3 °F 8.2 °F 1007.7 in WNW 18.5 mph 18.5 mph 81 % 0.0 in 12.0 W/m2 BKN
07:42 11.3 °F 8.1 °F 1007.7 in WSW 9.3 mph 9.3 mph 81 % 0.0 in 21.0 W/m2 BKN
07:47 11.3 °F 8.1 °F 1008.0 in WSW 5.6 mph 5.6 mph 81 % 0.0 in 19.0 W/m2 BKN
07:52 11.3 °F 8.1 °F 1008.0 in WNW 17.7 mph 17.7 mph 81 % 0.0 in 18.0 W/m2 BKN
07:57 11.3 °F 8.1 °F 1008.0 in WSW 11.1 mph 11.1 mph 81 % 0.0 in 16.0 W/m2 BKN
08:02 11.3 °F 8.1 °F 1008.0 in West 18.5 mph 18.5 mph 81 % 0.0 in 23.0 W/m2 BKN
08:07 11.2 °F 8.1 °F 1008.4 in WSW 7.4 mph 7.4 mph 81 % 0.0 in 32.0 W/m2 BKN
08:12 11.2 °F 8.1 °F 1008.4 in WSW 9.3 mph 9.3 mph 81 % 0.0 in 35.0 W/m2 BKN
08:17 11.3 °F 8.1 °F 1008.4 in WSW 14.8 mph 14.8 mph 81 % 0.0 in 42.0 W/m2 BKN
08:22 11.3 °F 8.1 °F 1008.4 in West 13.0 mph 13.0 mph 81 % 0.0 in 39.0 W/m2 BKN
08:27 11.3 °F 8.1 °F 1008.4 in West 16.7 mph 16.7 mph 81 % 0.0 in 49.0 W/m2 BKN
08:32 11.3 °F 8.1 °F 1008.4 in WNW 22.2 mph 22.2 mph 81 % 0.0 in 49.0 W/m2 BKN
08:37 11.3 °F 8.2 °F 1008.4 in West 16.7 mph 16.7 mph 81 % 0.0 in 65.0 W/m2 SCT
08:42 11.4 °F 8.2 °F 1008.4 in NW 16.1 mph 16.1 mph 81 % 0.0 in 69.0 W/m2 SCT
08:47 11.4 °F 8.2 °F 1008.7 in WNW 29.6 mph 29.6 mph 81 % 0.0 in 58.0 W/m2 FEW
08:52 11.4 °F 8.2 °F 1008.7 in NW 27.8 mph 27.8 mph 81 % 0.0 in 62.0 W/m2 SCT
08:57 11.4 °F 8.3 °F 1008.7 in West 18.5 mph 18.5 mph 81 % 0.0 in 67.0 W/m2 SCT
09:02 11.5 °F 8.3 °F 1008.7 in NW 18.5 mph 18.5 mph 81 % 0.0 in 77.0 W/m2 FEW
09:07 11.6 °F 8.4 °F 1008.7 in WNW 18.5 mph 18.5 mph 81 % 0.0 in 107.0 W/m2 FEW
09:12 11.6 °F 8.4 °F 1008.7 in West 18.5 mph 18.5 mph 81 % 0.0 in 109.0 W/m2 CLR
09:17 11.6 °F 8.4 °F 1008.7 in West 24.1 mph 24.1 mph 81 % 0.0 in 132.0 W/m2 CLR
09:22 11.7 °F 8.6 °F 1008.7 in West 18.5 mph 18.5 mph 81 % 0.0 in 128.0 W/m2 CLR
09:27 11.8 °F 8.4 °F 1008.7 in West 22.2 mph 22.2 mph 80 % 0.0 in 148.0 W/m2 CLR
09:32 11.8 °F 8.3 °F 1008.7 in West 29.6 mph 29.6 mph 79 % 0.0 in 169.0 W/m2 CLR
09:37 11.8 °F 8.1 °F 1008.7 in WNW 29.6 mph 29.6 mph 78 % 0.0 in 188.0 W/m2 CLR
09:42 11.9 °F 8.4 °F 1009.0 in NNW 18.5 mph 18.5 mph 79 % 0.0 in 207.0 W/m2 CLR
09:47 12.1 °F 8.5 °F 1008.7 in WNW 18.5 mph 18.5 mph 79 % 0.0 in 214.0 W/m2 CLR
09:52 12.1 °F 8.4 °F 1008.7 in WNW 18.5 mph 18.5 mph 78 % 0.0 in 223.0 W/m2 CLR
09:57 12.2 °F 8.4 °F 1009.0 in NW 18.5 mph 18.5 mph 78 % 0.0 in 207.0 W/m2 CLR
10:02 12.2 °F 8.3 °F 1008.7 in WNW 18.5 mph 18.5 mph 77 % 0.0 in 193.0 W/m2 CLR
10:07 12.2 °F 8.5 °F 1008.7 in West 16.7 mph 16.7 mph 78 % 0.0 in 197.0 W/m2 CLR
10:12 12.3 °F 8.3 °F 1009.0 in West 20.9 mph 20.9 mph 77 % 0.0 in 204.0 W/m2 CLR
10:17 12.3 °F 8.3 °F 1009.0 in West 14.8 mph 14.8 mph 77 % 0.0 in 183.0 W/m2 CLR
10:22 12.3 °F 8.4 °F 1009.0 in NW 18.5 mph 18.5 mph 77 % 0.0 in 204.0 W/m2 CLR
10:27 12.3 °F 8.6 °F 1009.0 in WNW 16.7 mph 16.7 mph 78 % 0.0 in 255.0 W/m2 CLR
10:32 12.3 °F 8.2 °F 1009.0 in WNW 25.9 mph 25.9 mph 76 % 0.0 in 279.0 W/m2 CLR
10:37 12.3 °F 8.3 °F 1009.4 in West 18.5 mph 18.5 mph 77 % 0.0 in 274.0 W/m2 CLR
10:42 12.3 °F 8.4 °F 1009.4 in WNW 27.4 mph 27.4 mph 77 % 0.0 in 288.0 W/m2 CLR
10:47 12.4 °F 8.5 °F 1009.4 in NW 22.2 mph 22.2 mph 77 % 0.0 in 292.0 W/m2 CLR
10:52 12.5 °F 8.4 °F 1009.4 in WNW 25.7 mph 25.7 mph 76 % 0.0 in 281.0 W/m2 CLR
10:57 12.4 °F 8.5 °F 1009.4 in West 18.5 mph 18.5 mph 77 % 0.0 in 260.0 W/m2 CLR
11:02 12.6 °F 8.6 °F 1009.4 in WNW 20.4 mph 20.4 mph 77 % 0.0 in 255.0 W/m2 CLR
11:07 12.6 °F 8.4 °F 1009.4 in WNW 25.9 mph 25.9 mph 76 % 0.0 in 294.0 W/m2 CLR
11:12 12.6 °F 8.5 °F 1009.4 in NW 22.5 mph 22.5 mph 76 % 0.0 in 329.0 W/m2 CLR
11:17 12.8 °F 8.8 °F 1009.4 in WNW 17.7 mph 17.7 mph 77 % 0.0 in 255.0 W/m2 CLR
11:22 12.8 °F 8.7 °F 1009.4 in WNW 20.4 mph 20.4 mph 76 % 0.0 in 272.0 W/m2 CLR
11:27 12.8 °F 8.7 °F 1009.4 in WNW 29.6 mph 29.6 mph 76 % 0.0 in 290.0 W/m2 CLR
11:32 12.9 °F 8.6 °F 1009.4 in NNW 22.2 mph 22.2 mph 75 % 0.0 in 295.0 W/m2 CLR
11:37 12.9 °F 8.8 °F 1009.4 in WNW 16.1 mph 16.1 mph 76 % 0.0 in 278.0 W/m2 CLR
11:42 12.9 °F 8.4 °F 1009.7 in NW 24.1 mph 24.1 mph 74 % 0.0 in 281.0 W/m2 CLR
11:47 12.9 °F 8.8 °F 1009.4 in WNW 18.5 mph 18.5 mph 76 % 0.0 in 285.0 W/m2 CLR
11:52 13.0 °F 8.9 °F 1009.4 in WNW 18.5 mph 18.5 mph 76 % 0.0 in 367.0 W/m2 CLR
11:57 13.0 °F 8.7 °F 1009.4 in WNW 24.1 mph 24.1 mph 75 % 0.0 in 374.0 W/m2 CLR
12:02 13.1 °F 8.8 °F 1009.4 in NNW 18.5 mph 18.5 mph 75 % 0.0 in 448.0 W/m2 CLR
12:07 13.2 °F 8.9 °F 1009.4 in NW 27.8 mph 27.8 mph 75 % 0.0 in 485.0 W/m2 CLR
12:08 13.2 °F 8.9 °F 1009.4 in NW 27.8 mph 27.8 mph 75 % 0.0 in 485.0 W/m2 CLR
12:13 13.2 °F 8.7 °F 1009.4 in NW 18.5 mph 18.5 mph 74 % 0.0 in 687.0 W/m2 CLR
12:18 13.4 °F 8.9 °F 1009.4 in WNW 18.5 mph 18.5 mph 74 % 0.0 in 489.0 W/m2 CLR
12:23 13.7 °F 8.7 °F 1009.4 in NW 31.5 mph 31.5 mph 72 % 0.0 in 668.0 W/m2 CLR
12:28 13.7 °F 8.6 °F 1009.4 in NW 29.6 mph 29.6 mph 71 % 0.0 in 606.0 W/m2 CLR
12:33 13.6 °F 8.4 °F 1009.4 in WNW 24.1 mph 24.1 mph 71 % 0.0 in 577.0 W/m2 CLR
12:38 13.7 °F 8.6 °F 1009.4 in NW 25.9 mph 25.9 mph 71 % 0.0 in 638.0 W/m2 CLR
12:43 13.8 °F 8.4 °F 1009.4 in NW 22.2 mph 22.2 mph 70 % 0.0 in 703.0 W/m2 CLR
12:48 13.8 °F 8.2 °F 1009.4 in WNW 25.9 mph 25.9 mph 69 % 0.0 in 621.0 W/m2 CLR
12:53 13.8 °F 8.2 °F 1009.4 in WNW 24.1 mph 24.1 mph 69 % 0.0 in 631.0 W/m2 CLR
12:58 13.9 °F 8.5 °F 1009.4 in WNW 16.7 mph 16.7 mph 70 % 0.0 in 657.0 W/m2 CLR
13:03 14.1 °F 8.2 °F 1009.4 in NW 20.4 mph 20.4 mph 68 % 0.0 in 715.0 W/m2 CLR
13:08 13.9 °F 8.1 °F 1009.7 in WNW 19.3 mph 19.3 mph 68 % 0.0 in 830.0 W/m2 CLR
13:13 14.2 °F 8.4 °F 1009.4 in NW 27.8 mph 27.8 mph 68 % 0.0 in 875.0 W/m2 CLR
13:18 14.3 °F 8.2 °F 1009.4 in NNW 22.2 mph 22.2 mph 67 % 0.0 in 533.0 W/m2 CLR
13:23 14.1 °F 7.6 °F 1009.4 in NNW 25.9 mph 25.9 mph 65 % 0.0 in 415.0 W/m2 CLR
13:25 13.9 °F 7.7 °F 1009.4 in WNW 25.9 mph 25.9 mph 66 % 0.0 in 387.0 W/m2 CLR
13:30 13.7 °F 7.9 °F 1009.4 in West 18.5 mph 18.5 mph 68 % 0.0 in 357.0 W/m2 CLR
13:35 13.8 °F 8.0 °F 1009.4 in NNW 24.1 mph 24.1 mph 68 % 0.0 in 424.0 W/m2 CLR
13:38 13.9 °F 7.9 °F 1009.4 in NNW 18.5 mph 18.5 mph 67 % 0.0 in 652.0 W/m2 CLR
13:43 14.1 °F 7.8 °F 1009.4 in NW 20.4 mph 20.4 mph 66 % 0.0 in 448.0 W/m2 CLR
13:48 14.2 °F 8.2 °F 1009.4 in WNW 22.2 mph 22.2 mph 67 % 0.0 in 647.0 W/m2 CLR
13:53 14.4 °F 7.9 °F 1009.4 in WNW 27.8 mph 27.8 mph 65 % 0.0 in 1027.0 W/m2 CLR
13:54 14.4 °F 7.9 °F 1009.4 in WNW 24.1 mph 24.1 mph 65 % 0.0 in 1027.0 W/m2 CLR
13:59 14.7 °F 8.7 °F 1009.4 in North 20.9 mph 20.9 mph 67 % 0.0 in 1067.0 W/m2 CLR
14:04 14.6 °F 8.1 °F 1009.4 in WNW 22.2 mph 22.2 mph 65 % 0.0 in 290.0 W/m2 CLR
14:09 14.7 °F 8.2 °F 1009.4 in NW 22.2 mph 22.2 mph 65 % 0.0 in 993.0 W/m2 CLR
14:14 14.9 °F 8.2 °F 1009.4 in NW 18.5 mph 18.5 mph 64 % 0.0 in 1116.0 W/m2 CLR
14:19 14.7 °F 7.9 °F 1009.4 in NW 29.6 mph 29.6 mph 64 % 0.0 in 345.0 W/m2 CLR
14:24 14.4 °F 8.1 °F 1009.4 in WNW 25.9 mph 25.9 mph 66 % 0.0 in 466.0 W/m2 CLR
14:29 14.2 °F 7.7 °F 1009.4 in WNW 22.2 mph 22.2 mph 65 % 0.0 in 394.0 W/m2 CLR
14:34 14.2 °F 7.7 °F 1009.4 in NNW 22.2 mph 22.2 mph 65 % 0.0 in 422.0 W/m2 CLR
14:39 14.2 °F 7.9 °F 1009.4 in WNW 22.2 mph 22.2 mph 66 % 0.0 in 371.0 W/m2 CLR
14:44 14.1 °F 7.6 °F 1009.4 in WNW 22.2 mph 22.2 mph 65 % 0.0 in 299.0 W/m2 CLR
14:49 14.2 °F 7.9 °F 1009.4 in NNW 14.8 mph 14.8 mph 66 % 0.0 in 316.0 W/m2 CLR
14:54 14.3 °F 8.0 °F 1009.4 in NW 25.9 mph 25.9 mph 66 % 0.0 in 408.0 W/m2 CLR
14:59 14.3 °F 7.8 °F 1009.4 in NW 16.7 mph 16.7 mph 65 % 0.0 in 345.0 W/m2 CLR
15:04 14.2 °F 7.7 °F 1009.4 in WNW 20.4 mph 20.4 mph 65 % 0.0 in 283.0 W/m2 CLR
15:09 14.2 °F 7.9 °F 1009.4 in NW 20.4 mph 20.4 mph 66 % 0.0 in 278.0 W/m2 CLR
15:14 14.1 °F 7.4 °F 1009.7 in NNW 22.2 mph 22.2 mph 64 % 0.0 in 213.0 W/m2 CLR
15:19 13.9 °F 7.2 °F 1009.4 in NW 18.5 mph 18.5 mph 64 % 0.0 in 251.0 W/m2 CLR
15:24 13.8 °F 6.9 °F 1009.4 in NNW 22.2 mph 22.2 mph 63 % 0.0 in 227.0 W/m2 CLR
15:29 13.8 °F 7.3 °F 1009.7 in NW 20.4 mph 20.4 mph 65 % 0.0 in 207.0 W/m2 CLR
15:31 13.7 °F 7.1 °F 1009.7 in NW 18.5 mph 18.5 mph 64 % 0.0 in 223.0 W/m2 CLR
15:36 13.7 °F 7.3 °F 1009.7 in WNW 18.5 mph 18.5 mph 65 % 0.0 in 230.0 W/m2 CLR
15:41 13.7 °F 7.5 °F 1009.4 in NNW 19.3 mph 19.3 mph 66 % 0.0 in 306.0 W/m2 CLR
15:46 13.8 °F 7.3 °F 1009.7 in NW 16.7 mph 16.7 mph 65 % 0.0 in 214.0 W/m2 CLR
15:51 13.7 °F 6.8 °F 1009.7 in NNW 18.5 mph 18.5 mph 63 % 0.0 in 181.0 W/m2 CLR
15:56 13.6 °F 6.7 °F 1009.7 in NNW 18.5 mph 18.5 mph 63 % 0.0 in 185.0 W/m2 CLR
16:01 13.4 °F 6.8 °F 1009.7 in NW 16.7 mph 16.7 mph 64 % 0.0 in 171.0 W/m2 CLR
16:06 13.4 °F 6.8 °F 1009.7 in NW 22.2 mph 22.2 mph 64 % 0.0 in 162.0 W/m2 CLR
16:11 13.3 °F 6.9 °F 1009.7 in WNW 13.0 mph 13.0 mph 65 % 0.0 in 139.0 W/m2 CLR
16:16 13.3 °F 6.7 °F 1009.7 in WNW 18.5 mph 18.5 mph 64 % 0.0 in 113.0 W/m2 CLR
16:21 13.2 °F 6.3 °F 1009.7 in NW 14.5 mph 14.5 mph 63 % 0.0 in 113.0 W/m2 CLR
16:26 13.2 °F 6.3 °F 1009.7 in NW 17.7 mph 17.7 mph 63 % 0.0 in 81.0 W/m2 CLR
16:31 13.2 °F 6.3 °F 1009.7 in WNW 14.8 mph 14.8 mph 63 % 0.0 in 84.0 W/m2 CLR
16:36 13.2 °F 6.6 °F 1009.7 in WNW 14.8 mph 14.8 mph 64 % 0.0 in 60.0 W/m2 FEW
16:41 13.2 °F 6.6 °F 1009.7 in WNW 16.7 mph 16.7 mph 64 % 0.0 in 63.0 W/m2 SCT
16:46 13.3 °F 6.6 °F 1009.7 in NW 16.7 mph 16.7 mph 64 % 0.0 in 77.0 W/m2 SCT
16:51 13.3 °F 6.4 °F 1009.7 in NW 16.7 mph 16.7 mph 63 % 0.0 in 74.0 W/m2 FEW
16:56 13.3 °F 6.4 °F 1009.7 in NW 13.0 mph 13.0 mph 63 % 0.0 in 56.0 W/m2 FEW
17:01 13.3 °F 6.2 °F 1009.7 in NW 24.1 mph 24.1 mph 62 % 0.0 in 60.0 W/m2 SCT
17:02 13.2 °F 5.8 °F 1009.7 in NW 25.9 mph 25.9 mph 61 % 0.0 in 56.0 W/m2 SCT
17:07 13.1 °F 5.8 °F 1009.7 in NW 20.9 mph 20.9 mph 61 % 0.0 in 49.0 W/m2 SCT
17:12 13.1 °F 5.7 °F 1009.7 in NW 18.5 mph 18.5 mph 61 % 0.0 in 42.0 W/m2 SCT
17:17 13.1 °F 5.7 °F 1009.7 in NNW 18.5 mph 18.5 mph 61 % 0.0 in 42.0 W/m2 BKN
17:22 13.1 °F 5.7 °F 1009.7 in NW 18.5 mph 18.5 mph 61 % 0.0 in 49.0 W/m2 SCT
17:27 13.1 °F 5.4 °F 1009.7 in NW 18.5 mph 18.5 mph 60 % 0.0 in 72.0 W/m2 FEW
17:32 13.1 °F 5.7 °F 1009.7 in NW 19.3 mph 19.3 mph 61 % 0.0 in 77.0 W/m2 SCT
17:37 13.1 °F 5.5 °F 1009.7 in WNW 18.5 mph 18.5 mph 60 % 0.0 in 105.0 W/m2 FEW
17:42 13.1 °F 5.7 °F 1009.7 in NW 16.7 mph 16.7 mph 61 % 0.0 in 67.0 W/m2 CLR
17:47 13.0 °F 5.7 °F 1009.7 in NW 14.8 mph 14.8 mph 61 % 0.0 in 76.0 W/m2 FEW
17:52 13.0 °F 5.7 °F 1009.7 in NW 5.6 mph 8.4 mph 61 % 0.0 in 53.0 W/m2 FEW
17:57 12.9 °F 5.3 °F 1010.0 in NW 18.5 mph 18.5 mph 60 % 0.0 in 44.0 W/m2 SCT
18:02 12.9 °F 5.1 °F 1010.0 in WNW 20.4 mph 20.4 mph 59 % 0.0 in 54.0 W/m2 SCT
18:08 12.9 °F 5.1 °F 1010.0 in NW 16.7 mph 16.7 mph 59 % 0.0 in 40.0 W/m2 SCT
18:13 12.8 °F 5.0 °F 1010.0 in NNW 17.7 mph 17.7 mph 59 % 0.0 in 32.0 W/m2 SCT
18:18 12.8 °F 4.7 °F 1010.0 in NW 18.5 mph 18.5 mph 58 % 0.0 in 44.0 W/m2 BKN
18:23 12.7 °F 4.9 °F 1010.0 in WNW 18.5 mph 18.5 mph 59 % 0.0 in 37.0 W/m2 BKN
18:28 12.7 °F 4.6 °F 1010.0 in NW 18.5 mph 18.5 mph 58 % 0.0 in 33.0 W/m2 BKN
18:33 12.6 °F 4.3 °F 1010.0 in NW 24.1 mph 24.1 mph 57 % 0.0 in 25.0 W/m2 BKN
18:38 12.4 °F 4.1 °F 1010.4 in WNW 22.2 mph 22.2 mph 57 % 0.0 in 25.0 W/m2 BKN
18:43 12.3 °F 4.1 °F 1010.4 in WNW 20.9 mph 20.9 mph 57 % 0.0 in 33.0 W/m2 BKN
18:48 12.3 °F 4.1 °F 1010.4 in NW 22.2 mph 22.2 mph 57 % 0.0 in 30.0 W/m2 BKN
18:53 12.3 °F 4.0 °F 1010.4 in NW 22.2 mph 22.2 mph 57 % 0.0 in 26.0 W/m2 BKN
18:58 12.3 °F 4.0 °F 1010.4 in WNW 14.8 mph 14.8 mph 57 % 0.0 in 26.0 W/m2 BKN
19:03 12.2 °F 3.9 °F 1010.4 in NW 18.5 mph 18.5 mph 57 % 0.0 in 26.0 W/m2 BKN
19:08 12.2 °F 3.9 °F 1010.4 in West 18.5 mph 18.5 mph 57 % 0.0 in 21.0 W/m2 BKN
19:13 12.2 °F 3.7 °F 1010.4 in West 22.2 mph 22.2 mph 56 % 0.0 in 28.0 W/m2 BKN
19:18 12.2 °F 3.7 °F 1010.4 in WNW 20.4 mph 20.4 mph 56 % 0.0 in 19.0 W/m2 BKN
19:23 12.1 °F 3.6 °F 1010.7 in WNW 16.7 mph 16.7 mph 56 % 0.0 in 14.0 W/m2 BKN
19:28 12.1 °F 3.8 °F 1010.7 in WNW 16.7 mph 16.7 mph 57 % 0.0 in 18.0 W/m2 BKN
19:33 11.8 °F 4.3 °F 1010.7 in West 14.8 mph 14.8 mph 60 % 0.0 in 16.0 W/m2 BKN
19:38 11.6 °F 4.3 °F 1010.7 in WNW 16.7 mph 16.7 mph 61 % 0.0 in 19.0 W/m2 BKN
19:43 11.5 °F 4.4 °F 1010.7 in West 13.0 mph 13.0 mph 62 % 0.0 in 12.0 W/m2 BKN
19:48 11.4 °F 4.2 °F 1011.1 in WNW 18.5 mph 18.5 mph 61 % 0.0 in 11.0 W/m2 BKN
19:53 11.4 °F 4.1 °F 1011.1 in WNW 19.3 mph 19.3 mph 61 % 0.0 in 9.0 W/m2 BKN
19:58 11.3 °F 4.3 °F 1011.1 in WNW 13.0 mph 13.0 mph 62 % 0.0 in 9.0 W/m2 BKN
20:03 11.1 °F 4.3 °F 1011.1 in WNW 3.7 mph 3.7 mph 63 % 0.0 in 11.0 W/m2 BKN
20:08 10.9 °F 4.3 °F 1011.1 in WNW 14.8 mph 14.8 mph 64 % 0.3 in 9.0 W/m2 RA
20:13 10.8 °F 4.3 °F 1011.1 in WNW 13.0 mph 13.0 mph 64 % 0.3 in 7.0 W/m2 BKN
20:18 10.8 °F 4.4 °F 1011.1 in West 16.7 mph 16.7 mph 65 % 0.3 in 9.0 W/m2 BKN
20:23 10.8 °F 4.3 °F 1011.4 in WNW 13.0 mph 13.0 mph 64 % 0.3 in 7.0 W/m2 BKN
20:28 10.8 °F 3.8 °F 1011.4 in West 16.7 mph 16.7 mph 62 % 0.3 in 0.0 W/m2 OVC
20:33 10.9 °F 3.5 °F 1011.4 in WNW 18.5 mph 18.5 mph 60 % 0.3 in 0.0 W/m2 OVC
20:38 11.1 °F 3.6 °F 1011.4 in WNW 14.8 mph 14.8 mph 60 % 0.3 in 0.0 W/m2 OVC
20:43 11.1 °F 3.1 °F 1011.4 in WNW 22.2 mph 22.2 mph 58 % 0.3 in 0.0 W/m2 OVC
20:48 11.0 °F 3.5 °F 1011.4 in NW 16.7 mph 16.7 mph 60 % 0.3 in 0.0 W/m2 OVC
20:53 10.9 °F 3.7 °F 1011.4 in Calm     61 % 0.3 in 0.0 W/m2 OVC
20:58 10.9 °F 3.4 °F 1011.4 in WNW 13.0 mph 13.0 mph 60 % 0.3 in 0.0 W/m2 OVC
21:03 10.9 °F 3.0 °F 1011.7 in NW 19.3 mph 19.3 mph 58 % 0.3 in 0.0 W/m2 CLR
21:09 11.0 °F 2.8 °F 1011.7 in WNW 18.5 mph 18.5 mph 57 % 0.0 in 0.0 W/m2 CLR
21:14 11.0 °F 2.6 °F 1011.7 in West 16.7 mph 16.7 mph 56 % 0.0 in 0.0 W/m2 CLR
21:19 11.0 °F 2.8 °F 1012.1 in WNW 14.8 mph 14.8 mph 57 % 0.0 in 0.0 W/m2 CLR
21:24 10.9 °F 2.7 °F 1012.1 in West 24.1 mph 24.1 mph 57 % 0.0 in 0.0 W/m2 CLR
21:29 10.9 °F 2.5 °F 1012.1 in WNW 24.1 mph 24.1 mph 56 % 0.0 in 0.0 W/m2 CLR
21:34 10.9 °F 2.4 °F 1012.4 in WNW 19.3 mph 19.3 mph 56 % 0.0 in 0.0 W/m2 CLR
21:39 10.9 °F 2.4 °F 1012.4 in WNW 22.2 mph 22.2 mph 56 % 0.0 in 0.0 W/m2 CLR
21:44 10.8 °F 2.2 °F 1012.4 in WNW 16.7 mph 16.7 mph 55 % 0.0 in 0.0 W/m2 CLR
21:49 10.8 °F 2.2 °F 1012.8 in West 18.5 mph 18.5 mph 55 % 0.0 in 0.0 W/m2 CLR
21:54 10.8 °F 2.2 °F 1012.8 in West 18.5 mph 18.5 mph 55 % 0.0 in 0.0 W/m2 CLR
21:59 10.8 °F 2.1 °F 1012.8 in West 18.5 mph 18.5 mph 55 % 0.0 in 0.0 W/m2 CLR
22:04 10.7 °F 2.1 °F 1012.8 in WNW 24.1 mph 24.1 mph 55 % 0.0 in 0.0 W/m2 CLR
22:09 10.7 °F 2.0 °F 1012.8 in WNW 22.2 mph 22.2 mph 55 % 0.0 in 0.0 W/m2 CLR
22:14 10.6 °F 2.2 °F 1012.8 in WNW 31.5 mph 31.5 mph 56 % 0.0 in 0.0 W/m2 CLR
22:19 10.6 °F 2.1 °F 1013.1 in NNW 18.5 mph 18.5 mph 56 % 0.0 in 0.0 W/m2 CLR
22:24 10.5 °F 2.1 °F 1013.1 in West 14.8 mph 14.8 mph 56 % 0.0 in 0.0 W/m2 CLR
22:29 10.5 °F 2.3 °F 1013.1 in WNW 16.7 mph 16.7 mph 57 % 0.0 in 0.0 W/m2 CLR
22:34 10.4 °F 2.0 °F 1013.1 in WNW 20.4 mph 20.4 mph 56 % 0.0 in 0.0 W/m2 CLR
22:39 10.4 °F 2.0 °F 1013.4 in WNW 27.8 mph 27.8 mph 56 % 0.0 in 0.0 W/m2 CLR
22:41 10.3 °F 1.9 °F 1013.4 in WNW 18.5 mph 18.5 mph 56 % 0.0 in 0.0 W/m2 CLR
22:46 10.3 °F 1.9 °F 1013.4 in WNW 25.9 mph 25.9 mph 56 % 0.0 in 0.0 W/m2 CLR
22:51 10.2 °F 1.6 °F 1013.4 in WNW 22.2 mph 22.2 mph 55 % 0.0 in 0.0 W/m2 CLR
22:56 10.2 °F 1.5 °F 1013.4 in NW 29.6 mph 29.6 mph 55 % 0.0 in 0.0 W/m2 CLR
22:58 10.1 °F 1.4 °F 1013.4 in WNW 27.8 mph 27.8 mph 55 % 0.0 in 0.0 W/m2 CLR
23:03 10.1 °F 1.7 °F 1013.8 in NNW 20.4 mph 20.4 mph 56 % 0.0 in 0.0 W/m2 CLR
23:08 9.9 °F 1.6 °F 1013.8 in WNW 24.1 mph 24.1 mph 56 % 0.0 in 0.0 W/m2 CLR
23:13 9.8 °F 0.9 °F 1013.8 in WNW 22.2 mph 22.2 mph 54 % 0.0 in 0.0 W/m2 CLR
23:18 9.8 °F 0.9 °F 1013.8 in WNW 27.8 mph 27.8 mph 54 % 0.0 in 0.0 W/m2 CLR
23:23 9.7 °F 0.8 °F 1013.8 in WNW 24.1 mph 24.1 mph 54 % 0.0 in 0.0 W/m2 CLR
23:28 9.7 °F 0.8 °F 1013.8 in WNW 24.1 mph 24.1 mph 54 % 0.0 in 0.0 W/m2 CLR
23:33 9.6 °F 0.7 °F 1013.8 in NW 20.4 mph 20.4 mph 54 % 0.0 in 0.0 W/m2 CLR
23:38 9.6 °F 0.7 °F 1013.8 in WNW 20.4 mph 20.4 mph 54 % 0.0 in 0.0 W/m2 CLR
23:43 9.5 °F 0.7 °F 1014.1 in WNW 22.2 mph 22.2 mph 54 % 0.0 in 0.0 W/m2 CLR
23:48 9.4 °F 0.6 °F 1013.8 in West 24.1 mph 24.1 mph 54 % 0.0 in 0.0 W/m2 CLR
23:53 9.4 °F 0.3 °F 1013.8 in West 31.5 mph 31.5 mph 53 % 0.0 in 0.0 W/m2 CLR
23:58 9.4 °F 0.3 °F 1014.1 in West 27.8 mph 27.8 mph 53 % 0.0 in 0.0 W/m2 CLR
Lo Temps de Massalio
Compliments of Weather Underground - 1.25 mb